Detall de PIREP

Printer-friendly versionPDF version

[2011/05/21 14:28:00]
Flight IATA:CT3101
Pilot Number:042
Company ICAO:CAT
Aircraft Type:F100/F
PAX:50
Aircraft Registration:DA
Departing Airport: LEBL
Destination Airport: LIEA
Alternate Airport:LIEO
Online: VATSIM
Route:VERSO UL16 MHN UM603 MOROB
Flight Level:F240
No Slew and time accel
No pause
Crash detect
Detect pilot in Cockpit between each 30 and 45 minutes
14:28 Zero fuel Weight: 80839 Lbs, Fuel Weight: 23551 Lbs
14:28 VATSIM:LEBL 211400Z 12007KT 080V160 9999 FEW025 23/11 Q1019 NOSIG
14:28 VATSIM:LIEA 211350Z 02014KT 9999 FEW048 24/12 Q1016
14:28 VOICE CATALONIAN
14:42 Parking Brakes off
14:46 Take-off
14:46 Take off Weight: 103976 Lbs
14:46 Wind: 125 @ 006 Knots Heading: 068
14:46 POS N41 17 21 E002 05 44
14:46 Gear Up: 180 Knots
14:46 Flaps:2 at 180 Knots
14:46 Flaps:1 at 177 Knots
14:48 Flaps:0 at 182 Knots
15:01 Wind:039@005 Knots Heading: 120 Ground Speed: 385 Knots Altitude 20219 ft
15:04 TOC
15:04 Fuel Weight: 20669 Lb
15:16 Wind:038@007 Knots Heading: 075 Ground Speed: 426 Knots Altitude 24166 ft
15:31 Wind:103@005 Knots Heading: 075 Ground Speed: 393 Knots Altitude 24110 ft
15:31 TOD
15:31 Fuel Weight: 18283 Lb
15:44 Flaps:1 at 180 Knots
15:47 Wind:140@001 Knots Heading: 019 Ground Speed: 177 Knots Altitude 2808 ft
15:47 Flaps:2 at 168 Knots
15:48 Flaps:3 at 169 Knots
15:48 Gear Down: 164 Knots
15:49 Flaps:4 at 163 Knots
15:53 TouchDown:Rate -602 ft/min Speed: 157 Knots
15:53 VATSIM:LIEA 211520Z 04018KT 9999 FEW048 23/11 Q1016
15:53 Land
15:53 Wind:082@018 Knots
15:53 Heading: 081
15:53 Flight Duration: 01:07
15:53 Landing Weight: 98138 Lbs
15:53 POS N40 38 45 E008 18 00
15:53 Parking brakes on
15:53 Block to Block Duration: 01:11
15:53 Final Fuel: 17290 Lbls
15:53 Spent Fuel: 6261 Lbls
15:53 Flight Length: 348 NM
15:53 TOD Land Length: 63 NM

Exportar CSV

Powered by Drupal - Modified by Danger4k